createdAt,value
2022-10-25T00:00:00.972Z,17.38
2022-10-25T00:02:32.536Z,17.39
2022-10-25T00:04:59.376Z,17.19
2022-10-25T00:07:26.149Z,17.37
2022-10-25T00:09:53.148Z,17.48
2022-10-25T00:12:19.916Z,17.33
2022-10-25T00:14:46.668Z,17.55
2022-10-25T00:17:13.560Z,17.51
2022-10-25T00:19:40.295Z,17.52
2022-10-25T00:22:07.070Z,17.36
2022-10-25T00:24:33.955Z,17.10
2022-10-25T00:27:00.613Z,17.37
2022-10-25T00:29:28.006Z,17.39
2022-10-25T00:31:54.717Z,17.35
2022-10-25T00:34:21.584Z,17.53
2022-10-25T00:36:48.382Z,17.40
2022-10-25T00:39:15.322Z,17.20
2022-10-25T00:41:42.066Z,17.16
2022-10-25T00:44:53.670Z,17.19
2022-10-25T00:47:20.757Z,15.78
2022-10-25T00:49:58.307Z,16.09
2022-10-25T00:52:27.068Z,16.51
2022-10-25T00:54:54.561Z,16.75
2022-10-25T00:57:34.636Z,16.74
2022-10-25T01:00:02.772Z,16.67
2022-10-25T01:02:29.748Z,16.69
2022-10-25T01:04:57.165Z,16.57
2022-10-25T01:07:23.912Z,16.39
2022-10-25T01:09:51.814Z,15.62
2022-10-25T01:12:18.499Z,15.91
2022-10-25T01:14:48.719Z,15.96
2022-10-25T01:17:28.295Z,16.05
2022-10-25T01:20:39.910Z,16.19
2022-10-25T01:23:28.227Z,16.49
2022-10-25T01:26:22.748Z,16.72
2022-10-25T01:29:01.293Z,16.86
2022-10-25T01:31:53.416Z,16.76
2022-10-25T01:34:31.411Z,16.88
2022-10-25T01:37:07.203Z,16.47
2022-10-25T01:39:41.480Z,16.47
2022-10-25T01:42:14.314Z,16.61
2022-10-25T01:45:08.884Z,16.61
2022-10-25T01:47:42.144Z,16.39
2022-10-25T01:50:14.863Z,16.24
2022-10-25T01:52:41.865Z,16.36
2022-10-25T01:55:13.148Z,16.42
2022-10-25T01:58:11.036Z,16.48
2022-10-25T02:00:55.985Z,16.33
2022-10-25T02:03:31.992Z,16.30
2022-10-25T02:06:17.099Z,16.37
2022-10-25T02:08:50.660Z,15.94
2022-10-25T02:11:32.043Z,15.40
2022-10-25T02:14:32.380Z,14.98
2022-10-25T02:17:09.521Z,15.04
2022-10-25T02:19:59.307Z,15.13
2022-10-25T02:22:30.526Z,15.44
2022-10-25T02:24:58.057Z,15.69
2022-10-25T02:27:26.526Z,15.80
2022-10-25T02:29:54.815Z,15.89
2022-10-25T02:32:21.765Z,15.84
2022-10-25T02:34:50.114Z,15.91
2022-10-25T02:37:18.218Z,15.75
2022-10-25T02:39:45.924Z,15.91
2022-10-25T02:42:12.807Z,15.78
2022-10-25T02:44:39.576Z,15.93
2022-10-25T02:47:06.407Z,15.80
2022-10-25T02:49:33.212Z,15.75
2022-10-25T02:51:59.996Z,15.69
2022-10-25T02:54:26.837Z,15.74
2022-10-25T02:56:54.129Z,15.67
2022-10-25T02:59:21.394Z,15.80
2022-10-25T03:01:48.292Z,15.87
2022-10-25T03:04:15.296Z,15.90
2022-10-25T03:06:42.051Z,15.70
2022-10-25T03:09:08.899Z,15.23
2022-10-25T03:11:35.708Z,15.40
2022-10-25T03:14:02.445Z,15.51
2022-10-25T03:16:29.485Z,15.08
2022-10-25T03:18:59.876Z,15.21
2022-10-25T03:21:26.674Z,15.42
2022-10-25T03:23:53.543Z,15.48
2022-10-25T03:26:20.498Z,15.42
2022-10-25T03:28:47.159Z,15.44
2022-10-25T03:31:16.814Z,15.45
2022-10-25T03:33:44.181Z,15.57
2022-10-25T03:36:11.270Z,15.61
2022-10-25T03:38:38.188Z,15.50
2022-10-25T03:41:05.567Z,15.57
2022-10-25T03:43:32.324Z,14.96
2022-10-25T03:45:59.348Z,14.27
2022-10-25T03:48:26.299Z,14.27
2022-10-25T03:50:54.263Z,14.20
2022-10-25T03:53:21.231Z,13.86
2022-10-25T03:55:48.351Z,14.20
2022-10-25T03:58:15.222Z,14.57
2022-10-25T04:00:42.093Z,14.51
2022-10-25T04:03:09.400Z,13.85
2022-10-25T04:05:36.235Z,14.32
2022-10-25T04:08:03.296Z,14.82
2022-10-25T04:10:30.076Z,14.74
2022-10-25T04:12:56.932Z,14.67
2022-10-25T04:15:24.379Z,14.95
2022-10-25T04:17:52.226Z,14.67
2022-10-25T04:20:20.034Z,14.83
2022-10-25T04:22:53.207Z,15.05
2022-10-25T04:25:21.247Z,14.88
2022-10-25T04:27:48.433Z,14.65
2022-10-25T04:30:15.646Z,14.70
2022-10-25T04:32:42.460Z,14.74
2022-10-25T04:35:09.865Z,15.07
2022-10-25T04:37:36.742Z,15.03
2022-10-25T04:40:03.845Z,15.31
2022-10-25T04:42:33.884Z,15.37
2022-10-25T04:45:01.197Z,15.29
2022-10-25T04:47:31.510Z,15.15
2022-10-25T04:49:58.574Z,14.97
2022-10-25T04:52:25.326Z,14.85
2022-10-25T04:54:52.111Z,14.65
2022-10-25T04:57:18.904Z,15.00
2022-10-25T04:59:45.735Z,15.16
2022-10-25T05:02:12.644Z,14.80
2022-10-25T05:04:39.565Z,14.67
2022-10-25T05:07:06.311Z,14.20
2022-10-25T05:09:33.143Z,14.78
2022-10-25T05:11:59.827Z,14.76
2022-10-25T05:14:26.750Z,14.45
2022-10-25T05:16:53.423Z,14.90
2022-10-25T05:19:20.318Z,15.06
2022-10-25T05:21:47.825Z,15.18
2022-10-25T05:24:14.755Z,15.13
2022-10-25T05:26:41.435Z,15.05
2022-10-25T05:29:11.891Z,14.42
2022-10-25T05:31:41.338Z,14.51
2022-10-25T05:34:10.328Z,14.50
2022-10-25T05:36:37.316Z,14.51
2022-10-25T05:39:04.135Z,14.60
2022-10-25T05:41:33.391Z,15.11
2022-10-25T05:44:03.054Z,15.05
2022-10-25T05:46:29.999Z,14.85
2022-10-25T05:48:59.478Z,15.26
2022-10-25T05:51:37.656Z,14.78
2022-10-25T05:54:13.239Z,14.94
2022-10-25T05:56:40.409Z,14.86
2022-10-25T05:59:12.590Z,15.08
2022-10-25T06:01:48.718Z,15.17
2022-10-25T06:04:16.742Z,15.35
2022-10-25T06:06:45.503Z,15.06
2022-10-25T06:09:13.294Z,15.68
2022-10-25T06:11:40.680Z,15.54
2022-10-25T06:14:09.835Z,15.66
2022-10-25T06:16:38.352Z,16.21
2022-10-25T06:19:05.075Z,16.46
2022-10-25T06:21:31.835Z,16.40
2022-10-25T06:24:00.139Z,16.04
2022-10-25T06:26:29.283Z,16.00
2022-10-25T06:28:58.792Z,15.50
2022-10-25T06:31:25.965Z,16.38
2022-10-25T06:33:52.878Z,16.86
2022-10-25T06:36:24.561Z,16.90
2022-10-25T06:38:51.834Z,17.08
2022-10-25T06:41:21.277Z,16.62
2022-10-25T06:43:48.682Z,16.86
2022-10-25T06:46:20.519Z,16.43
2022-10-25T06:48:47.703Z,16.10
2022-10-25T06:51:15.375Z,15.96
2022-10-25T06:53:42.322Z,16.24
2022-10-25T06:56:14.469Z,16.70
2022-10-25T06:58:42.846Z,16.49
2022-10-25T07:01:15.006Z,16.67
2022-10-25T07:03:43.021Z,16.54
2022-10-25T07:06:15.971Z,17.02
2022-10-25T07:08:45.973Z,17.41
2022-10-25T07:11:18.404Z,17.28
2022-10-25T07:13:46.240Z,16.97
2022-10-25T07:16:32.862Z,17.10
2022-10-25T07:19:01.359Z,17.02
2022-10-25T07:21:29.889Z,17.28
2022-10-25T07:23:57.146Z,17.61
2022-10-25T07:26:27.295Z,17.36
2022-10-25T07:28:56.330Z,17.98
2022-10-25T07:31:26.182Z,18.30
2022-10-25T07:33:54.611Z,18.47
2022-10-25T07:36:21.498Z,19.00
2022-10-25T07:38:48.496Z,18.96
2022-10-25T07:41:15.490Z,18.48
2022-10-25T07:43:42.396Z,18.79
2022-10-25T07:46:09.571Z,19.21
2022-10-25T07:48:36.700Z,19.01
2022-10-25T07:51:08.839Z,19.50
2022-10-25T07:53:35.925Z,19.83
2022-10-25T07:56:03.433Z,19.82
2022-10-25T07:58:30.376Z,20.18
2022-10-25T08:01:05.041Z,20.71
2022-10-25T08:03:32.665Z,20.32
2022-10-25T08:06:00.082Z,20.75
2022-10-25T08:08:28.861Z,20.69
2022-10-25T08:10:55.964Z,21.13
2022-10-25T08:13:23.484Z,20.73
2022-10-25T08:15:55.281Z,21.36
2022-10-25T08:18:23.558Z,22.02
2022-10-25T08:21:02.348Z,21.89
2022-10-25T08:23:31.531Z,22.11
2022-10-25T08:25:58.948Z,22.08
2022-10-25T08:28:26.134Z,21.54
2022-10-25T08:30:55.294Z,22.78
2022-10-25T08:33:22.601Z,22.36
2022-10-25T08:35:49.549Z,22.40
2022-10-25T08:38:16.582Z,22.71
2022-10-25T08:40:56.172Z,22.50
2022-10-25T08:43:28.410Z,22.85
2022-10-25T08:46:02.600Z,22.57
2022-10-25T08:48:35.234Z,22.82
2022-10-25T08:51:14.685Z,22.13
2022-10-25T08:53:48.530Z,22.71
2022-10-25T08:56:19.141Z,23.24
2022-10-25T08:58:52.791Z,23.75
2022-10-25T09:01:27.504Z,23.22
2022-10-25T09:03:54.691Z,23.48
2022-10-25T09:06:28.471Z,24.45
2022-10-25T09:09:26.999Z,24.64
2022-10-25T09:12:02.978Z,24.51
2022-10-25T09:14:47.951Z,24.99
2022-10-25T09:17:28.840Z,25.24
2022-10-25T09:20:17.851Z,24.65
2022-10-25T09:22:54.376Z,24.76
2022-10-25T09:25:33.336Z,25.47
2022-10-25T09:28:03.807Z,25.45
2022-10-25T09:30:37.769Z,25.28
2022-10-25T09:33:11.102Z,24.58
2022-10-25T09:35:48.583Z,25.23
2022-10-25T09:38:40.109Z,25.42
2022-10-25T09:41:36.304Z,25.82
2022-10-25T09:44:36.410Z,25.63
2022-10-25T09:47:46.378Z,25.69
2022-10-25T09:50:35.179Z,25.95
2022-10-25T09:53:07.663Z,25.67
2022-10-25T09:55:41.310Z,24.97
2022-10-25T09:58:20.453Z,25.60
2022-10-25T10:00:48.395Z,25.90
2022-10-25T10:03:15.403Z,25.49
2022-10-25T10:05:48.265Z,25.77
2022-10-25T10:08:15.255Z,25.80
2022-10-25T10:10:42.471Z,26.24
2022-10-25T10:13:18.616Z,25.88
2022-10-25T10:16:11.067Z,26.18
2022-10-25T10:18:38.085Z,26.35
2022-10-25T10:21:04.691Z,26.10
2022-10-25T10:23:54.355Z,26.26
2022-10-25T10:26:35.294Z,26.27
2022-10-25T10:29:16.778Z,26.53
2022-10-25T10:31:48.067Z,26.69
2022-10-25T10:34:30.636Z,26.33
2022-10-25T10:37:12.619Z,26.52
2022-10-25T10:39:57.680Z,26.68
2022-10-25T10:42:37.154Z,26.94
2022-10-25T10:45:09.557Z,26.70
2022-10-25T10:47:56.971Z,26.67
2022-10-25T10:50:28.843Z,26.83
2022-10-25T10:52:59.392Z,26.77
2022-10-25T10:55:46.966Z,26.41
2022-10-25T10:58:31.667Z,26.25
2022-10-25T11:01:00.802Z,26.74
2022-10-25T11:03:49.126Z,26.70
2022-10-25T11:06:36.387Z,26.77
2022-10-25T11:09:19.408Z,26.91
2022-10-25T11:12:05.051Z,27.17
2022-10-25T11:14:31.947Z,26.95
2022-10-25T11:17:10.407Z,27.19
2022-10-25T11:19:56.143Z,27.29
2022-10-25T11:22:33.076Z,27.61
2022-10-25T11:25:12.207Z,27.64
2022-10-25T11:27:54.076Z,27.50
2022-10-25T11:30:27.156Z,28.02
2022-10-25T11:33:22.939Z,28.01
2022-10-25T11:36:10.256Z,28.69
2022-10-25T11:38:49.146Z,27.70
2022-10-25T11:41:34.784Z,28.30
2022-10-25T11:44:30.110Z,28.63
2022-10-25T11:47:05.899Z,29.43
2022-10-25T11:49:32.812Z,29.74
2022-10-25T11:52:24.144Z,30.14
2022-10-25T11:54:56.627Z,30.06
2022-10-25T11:57:33.852Z,29.63
2022-10-25T12:00:07.118Z,30.28
2022-10-25T12:03:02.759Z,30.41
2022-10-25T12:05:44.995Z,30.50
2022-10-25T12:08:37.708Z,31.16
2022-10-25T12:11:09.174Z,31.87
2022-10-25T12:13:42.956Z,31.33
2022-10-25T12:16:16.808Z,31.72
2022-10-25T12:18:49.565Z,32.42
2022-10-25T12:21:27.162Z,31.40
2022-10-25T12:23:55.213Z,32.91
2022-10-25T12:26:31.462Z,33.06
2022-10-25T12:29:02.046Z,33.69
2022-10-25T12:31:38.125Z,34.16
2022-10-25T12:34:35.442Z,34.38
2022-10-25T12:37:13.701Z,34.91
2022-10-25T12:39:43.252Z,35.27
2022-10-25T12:42:21.450Z,33.68
2022-10-25T12:45:26.859Z,34.75
2022-10-25T12:48:12.214Z,34.71
2022-10-25T12:51:02.611Z,35.76
2022-10-25T12:53:32.097Z,35.85
2022-10-25T12:56:17.415Z,36.26
2022-10-25T12:58:55.549Z,34.37
2022-10-25T13:01:40.114Z,33.99
2022-10-25T13:04:28.702Z,35.51
2022-10-25T13:06:57.736Z,36.01
2022-10-25T13:09:31.233Z,35.95
2022-10-25T13:12:02.727Z,35.97
2022-10-25T13:14:36.886Z,36.43
2022-10-25T13:17:15.909Z,36.83
2022-10-25T13:19:55.072Z,36.20
2022-10-25T13:22:36.044Z,35.97
2022-10-25T13:25:17.615Z,35.66
2022-10-25T13:28:15.621Z,35.49
2022-10-25T13:30:43.951Z,35.57
2022-10-25T13:33:21.641Z,35.40
2022-10-25T13:35:51.343Z,35.43
2022-10-25T13:38:24.069Z,35.38
2022-10-25T13:41:15.109Z,34.69
2022-10-25T13:43:56.982Z,34.79
2022-10-25T13:46:29.924Z,34.40
2022-10-25T13:48:57.523Z,34.53
2022-10-25T13:51:24.413Z,33.87
2022-10-25T13:53:53.079Z,32.87
2022-10-25T13:56:22.879Z,32.96
2022-10-25T13:59:01.333Z,32.66
2022-10-25T14:01:32.157Z,31.83
2022-10-25T14:04:01.936Z,31.71
2022-10-25T14:06:28.615Z,31.41
2022-10-25T14:09:09.405Z,30.74
2022-10-25T14:11:41.593Z,30.72
2022-10-25T14:14:21.891Z,31.03
2022-10-25T14:17:12.486Z,30.67
2022-10-25T14:19:41.991Z,30.37
2022-10-25T14:22:22.888Z,30.10
2022-10-25T14:24:53.265Z,30.32
2022-10-25T14:27:46.259Z,30.48
2022-10-25T14:30:25.389Z,30.08
2022-10-25T14:32:58.107Z,29.83
2022-10-25T14:35:45.102Z,29.99
2022-10-25T14:38:18.516Z,29.76
2022-10-25T14:41:00.110Z,29.55
2022-10-25T14:43:32.428Z,29.80
2022-10-25T14:46:14.446Z,29.66
2022-10-25T14:48:45.561Z,29.59
2022-10-25T14:51:22.888Z,29.30
2022-10-25T14:54:01.582Z,29.37
2022-10-25T14:56:30.372Z,29.45
2022-10-25T14:58:57.770Z,29.50
2022-10-25T15:01:24.948Z,29.50
2022-10-25T15:03:54.476Z,29.53
2022-10-25T15:06:26.794Z,29.58
2022-10-25T15:09:23.071Z,29.59
2022-10-25T15:12:05.428Z,29.34
2022-10-25T15:14:32.620Z,29.20
2022-10-25T15:17:15.977Z,29.04
2022-10-25T15:20:03.627Z,28.95
2022-10-25T15:22:52.306Z,29.02
2022-10-25T15:25:22.630Z,28.73
2022-10-25T15:27:51.342Z,28.45
2022-10-25T15:30:41.872Z,27.90
2022-10-25T15:33:12.042Z,27.67
2022-10-25T15:35:53.234Z,27.31
2022-10-25T15:38:20.118Z,27.50
2022-10-25T15:40:48.458Z,27.33
2022-10-25T15:43:15.951Z,27.50
2022-10-25T15:45:42.712Z,27.57
2022-10-25T15:48:14.651Z,27.62
2022-10-25T15:50:47.124Z,27.68
2022-10-25T15:53:14.061Z,27.39
2022-10-25T15:55:40.885Z,27.66
2022-10-25T15:58:09.891Z,27.56
2022-10-25T16:00:38.880Z,27.44
2022-10-25T16:03:08.558Z,27.21
2022-10-25T16:05:38.000Z,27.20
2022-10-25T16:08:05.174Z,27.14
2022-10-25T16:10:32.083Z,27.09
2022-10-25T16:13:04.826Z,27.10
2022-10-25T16:15:31.835Z,27.28
2022-10-25T16:17:58.742Z,26.85
2022-10-25T16:20:30.288Z,26.74
2022-10-25T16:22:57.931Z,26.70
2022-10-25T16:25:30.450Z,26.57
2022-10-25T16:28:00.767Z,26.72
2022-10-25T16:30:33.976Z,26.87
2022-10-25T16:33:01.119Z,26.87
2022-10-25T16:35:27.805Z,26.72
2022-10-25T16:37:54.484Z,26.93
2022-10-25T16:40:22.030Z,26.90
2022-10-25T16:42:49.300Z,26.82
2022-10-25T16:45:30.151Z,26.82
2022-10-25T16:47:58.244Z,26.62
2022-10-25T16:50:26.655Z,26.58
2022-10-25T16:52:56.389Z,26.44
2022-10-25T16:55:23.756Z,26.33
2022-10-25T16:57:50.721Z,26.46
2022-10-25T17:00:17.972Z,26.45
2022-10-25T17:02:44.931Z,26.61
2022-10-25T17:05:24.380Z,26.50
2022-10-25T17:07:51.437Z,26.37
2022-10-25T17:10:20.072Z,26.43
2022-10-25T17:12:49.803Z,26.53
2022-10-25T17:15:17.831Z,26.34
2022-10-25T17:17:45.817Z,26.11
2022-10-25T17:20:15.702Z,26.55
2022-10-25T17:22:42.855Z,26.51
2022-10-25T17:25:10.853Z,26.48
2022-10-25T17:27:39.972Z,26.32
2022-10-25T17:30:08.424Z,26.28
2022-10-25T17:32:35.424Z,26.32
2022-10-25T17:35:02.144Z,26.22
2022-10-25T17:37:28.871Z,26.14
2022-10-25T17:39:56.623Z,26.02
2022-10-25T17:42:23.651Z,26.16
2022-10-25T17:44:50.433Z,26.12
2022-10-25T17:47:17.142Z,25.89
2022-10-25T17:49:43.940Z,25.78
2022-10-25T17:52:11.229Z,25.72
2022-10-25T17:54:39.948Z,25.55
2022-10-25T17:57:06.735Z,25.41
2022-10-25T17:59:35.635Z,25.31
2022-10-25T18:02:02.883Z,25.26
2022-10-25T18:04:41.915Z,25.23
2022-10-25T18:07:16.672Z,25.25
2022-10-25T18:09:43.459Z,24.94
2022-10-25T18:12:10.320Z,25.04
2022-10-25T18:14:37.124Z,24.93
2022-10-25T18:17:04.248Z,25.01
2022-10-25T18:19:30.908Z,25.07
2022-10-25T18:22:01.716Z,24.90
2022-10-25T18:24:31.863Z,24.82
2022-10-25T18:26:59.456Z,24.52
2022-10-25T18:29:26.318Z,24.02
2022-10-25T18:31:53.093Z,24.27
2022-10-25T18:34:20.030Z,24.32
2022-10-25T18:36:46.742Z,24.06
2022-10-25T18:39:13.993Z,24.02
2022-10-25T18:41:42.423Z,24.33
2022-10-25T18:44:14.286Z,23.98
2022-10-25T18:46:42.736Z,24.24
2022-10-25T18:49:12.333Z,23.61
2022-10-25T18:51:40.662Z,23.86
2022-10-25T18:54:11.745Z,23.61
2022-10-25T18:56:39.806Z,23.40
2022-10-25T18:59:06.747Z,23.32
2022-10-25T19:01:33.737Z,23.57
2022-10-25T19:04:03.528Z,23.90
2022-10-25T19:06:31.244Z,23.65
2022-10-25T19:08:58.651Z,23.55
2022-10-25T19:11:26.053Z,23.33
2022-10-25T19:13:54.705Z,23.19
2022-10-25T19:16:22.552Z,23.14
2022-10-25T19:18:49.470Z,23.02
2022-10-25T19:21:18.440Z,22.91
2022-10-25T19:23:46.789Z,23.47
2022-10-25T19:26:19.521Z,23.32
2022-10-25T19:28:47.557Z,23.02
2022-10-25T19:31:17.397Z,23.20
2022-10-25T19:33:49.283Z,23.33
2022-10-25T19:36:17.327Z,23.01
2022-10-25T19:38:50.799Z,23.12
2022-10-25T19:41:20.439Z,23.24
2022-10-25T19:43:47.555Z,22.87
2022-10-25T19:46:15.004Z,22.79
2022-10-25T19:48:42.052Z,23.19
2022-10-25T19:51:11.484Z,23.13
2022-10-25T19:53:38.711Z,23.02
2022-10-25T19:56:07.118Z,22.96
2022-10-25T19:58:33.902Z,22.90
2022-10-25T20:01:12.808Z,22.88
2022-10-25T20:03:40.723Z,23.06
2022-10-25T20:06:21.561Z,23.24
2022-10-25T20:08:52.682Z,23.00
2022-10-25T20:11:19.864Z,22.74
2022-10-25T20:13:46.784Z,22.52
2022-10-25T20:16:14.149Z,22.50
2022-10-25T20:18:42.383Z,22.17
2022-10-25T20:21:14.193Z,21.93
2022-10-25T20:23:44.452Z,22.16
2022-10-25T20:26:19.735Z,22.11
2022-10-25T20:28:47.540Z,22.01
2022-10-25T20:31:15.750Z,22.27
2022-10-25T20:33:42.771Z,21.92
2022-10-25T20:36:12.292Z,21.56
2022-10-25T20:38:39.968Z,21.70
2022-10-25T20:41:12.298Z,21.71
2022-10-25T20:43:40.040Z,21.80
2022-10-25T20:46:07.992Z,21.97
2022-10-25T20:48:35.816Z,22.08
2022-10-25T20:51:06.750Z,21.82
2022-10-25T20:53:35.438Z,21.83
2022-10-25T20:56:02.462Z,21.88
2022-10-25T20:58:29.399Z,21.54
2022-10-25T21:00:57.494Z,21.43
2022-10-25T21:03:29.543Z,21.07
2022-10-25T21:05:58.114Z,21.14
2022-10-25T21:08:25.608Z,20.83
2022-10-25T21:11:01.078Z,21.05
2022-10-25T21:13:31.382Z,20.93
2022-10-25T21:15:58.495Z,21.11
2022-10-25T21:18:29.159Z,20.86
2022-10-25T21:21:01.093Z,20.99
2022-10-25T21:23:28.299Z,21.39
2022-10-25T21:25:59.781Z,21.40
2022-10-25T21:28:27.095Z,21.41
2022-10-25T21:30:54.518Z,21.08
2022-10-25T21:33:21.376Z,20.44
2022-10-25T21:35:48.259Z,20.83
2022-10-25T21:38:14.930Z,20.86
2022-10-25T21:40:41.915Z,20.84
2022-10-25T21:43:08.590Z,21.30
2022-10-25T21:45:35.354Z,20.64
2022-10-25T21:48:02.133Z,20.71
2022-10-25T21:50:29.149Z,20.70
2022-10-25T21:52:55.879Z,20.61
2022-10-25T21:55:22.740Z,20.36
2022-10-25T21:57:51.870Z,21.12
2022-10-25T22:00:20.804Z,20.29
2022-10-25T22:02:48.435Z,21.17
2022-10-25T22:05:15.467Z,20.88
2022-10-25T22:07:42.161Z,20.96
2022-10-25T22:10:09.588Z,21.20
2022-10-25T22:12:36.360Z,21.05
2022-10-25T22:15:03.164Z,21.37
2022-10-25T22:17:29.989Z,21.05
2022-10-25T22:19:56.688Z,20.82
2022-10-25T22:22:23.399Z,21.30
2022-10-25T22:24:50.117Z,20.83
2022-10-25T22:27:17.030Z,20.96
2022-10-25T22:29:43.754Z,21.04
2022-10-25T22:32:10.465Z,20.88
2022-10-25T22:34:37.183Z,21.29
2022-10-25T22:37:03.924Z,21.00
2022-10-25T22:39:30.816Z,20.90
2022-10-25T22:41:57.586Z,20.63
2022-10-25T22:44:24.314Z,20.53
2022-10-25T22:46:51.125Z,20.60
2022-10-25T22:49:19.325Z,20.79
2022-10-25T22:51:46.182Z,20.73
2022-10-25T22:54:12.881Z,20.81
2022-10-25T22:56:39.833Z,21.04
2022-10-25T22:59:06.995Z,20.76
2022-10-25T23:01:35.832Z,20.74
2022-10-25T23:04:04.363Z,20.99
2022-10-25T23:06:34.762Z,20.87
2022-10-25T23:09:04.758Z,20.87
2022-10-25T23:11:34.381Z,20.93
2022-10-25T23:14:01.870Z,20.58
2022-10-25T23:16:29.389Z,20.41
2022-10-25T23:18:56.530Z,20.54
2022-10-25T23:21:30.041Z,20.69
2022-10-25T23:23:58.724Z,20.71
2022-10-25T23:26:32.128Z,20.48
2022-10-25T23:29:00.172Z,20.40
2022-10-25T23:31:27.569Z,20.16
2022-10-25T23:33:56.541Z,20.18
2022-10-25T23:36:25.922Z,20.45
2022-10-25T23:38:54.266Z,20.35
2022-10-25T23:41:22.140Z,20.62
2022-10-25T23:43:49.128Z,20.57
2022-10-25T23:46:16.029Z,20.58
2022-10-25T23:48:42.761Z,20.68
2022-10-25T23:51:14.787Z,20.89
2022-10-25T23:53:43.308Z,20.42
2022-10-25T23:56:12.435Z,20.80
2022-10-25T23:58:39.619Z,20.34
